createdAt,value
2023-01-19T00:00:22.284Z,66.21
2023-01-19T00:02:50.874Z,66.37
2023-01-19T00:05:19.161Z,66.17
2023-01-19T00:07:47.611Z,65.40
2023-01-19T00:10:15.715Z,65.15
2023-01-19T00:12:44.061Z,64.35
2023-01-19T00:15:14.181Z,66.33
2023-01-19T00:17:42.963Z,65.97
2023-01-19T00:20:12.364Z,65.42
2023-01-19T00:22:40.839Z,65.59
2023-01-19T00:25:09.743Z,65.38
2023-01-19T00:27:38.097Z,65.12
2023-01-19T00:30:07.945Z,65.50
2023-01-19T00:32:37.592Z,64.81
2023-01-19T00:35:06.775Z,65.16
2023-01-19T00:37:34.893Z,64.72
2023-01-19T00:40:03.260Z,64.32
2023-01-19T00:42:44.675Z,63.76
2023-01-19T00:45:15.018Z,63.71
2023-01-19T00:47:44.565Z,63.00
2023-01-19T00:50:17.816Z,63.17
2023-01-19T00:52:46.421Z,63.47
2023-01-19T00:55:15.995Z,62.60
2023-01-19T00:57:44.262Z,61.25
2023-01-19T01:00:15.954Z,60.67
2023-01-19T01:02:45.807Z,60.13
2023-01-19T01:05:14.525Z,59.67
2023-01-19T01:07:45.265Z,58.54
2023-01-19T01:10:16.411Z,58.79
2023-01-19T01:12:53.646Z,60.08
2023-01-19T01:15:27.032Z,60.74
2023-01-19T01:17:57.347Z,63.88
2023-01-19T01:20:30.372Z,62.84
2023-01-19T01:22:58.925Z,61.89
2023-01-19T01:25:31.104Z,61.01
2023-01-19T01:27:59.410Z,60.95
2023-01-19T01:30:27.536Z,60.95
2023-01-19T01:32:56.846Z,60.96
2023-01-19T01:35:24.909Z,60.90
2023-01-19T01:37:53.187Z,60.31
2023-01-19T01:40:21.598Z,60.10
2023-01-19T01:42:49.698Z,60.67
2023-01-19T01:45:38.374Z,61.39
2023-01-19T01:48:12.350Z,60.81
2023-01-19T01:51:07.890Z,60.32
2023-01-19T01:53:38.586Z,60.42
2023-01-19T01:56:10.775Z,59.97
2023-01-19T01:58:40.083Z,60.85
2023-01-19T02:01:22.619Z,60.98
2023-01-19T02:03:52.928Z,61.38
2023-01-19T02:06:21.789Z,61.29
2023-01-19T02:09:13.427Z,61.51
2023-01-19T02:12:00.509Z,62.23
2023-01-19T02:14:28.931Z,61.45
2023-01-19T02:16:57.210Z,61.13
2023-01-19T02:19:33.540Z,60.99
2023-01-19T02:22:08.293Z,59.95
2023-01-19T02:24:41.138Z,58.75
2023-01-19T02:27:09.877Z,58.75
2023-01-19T02:29:38.507Z,58.54
2023-01-19T02:32:07.095Z,59.11
2023-01-19T02:34:36.259Z,58.99
2023-01-19T02:37:08.578Z,58.73
2023-01-19T02:39:44.840Z,59.88
2023-01-19T02:42:16.791Z,61.15
2023-01-19T02:44:49.589Z,60.82
2023-01-19T02:47:18.522Z,60.75
2023-01-19T02:49:46.677Z,60.77
2023-01-19T02:52:18.057Z,60.46
2023-01-19T02:54:59.780Z,60.74
2023-01-19T02:57:39.979Z,60.29
2023-01-19T03:00:27.449Z,61.00
2023-01-19T03:03:11.541Z,61.52
2023-01-19T03:05:53.513Z,61.72
2023-01-19T03:08:34.001Z,61.28
2023-01-19T03:11:05.249Z,60.33
2023-01-19T03:13:43.318Z,59.79
2023-01-19T03:16:17.548Z,60.99
2023-01-19T03:18:51.010Z,59.61
2023-01-19T03:21:21.158Z,59.28
2023-01-19T03:23:51.308Z,59.87
2023-01-19T03:26:26.918Z,60.39
2023-01-19T03:28:57.325Z,60.86
2023-01-19T03:31:29.309Z,60.14
2023-01-19T03:34:03.369Z,60.08
2023-01-19T03:36:36.282Z,60.16
2023-01-19T03:39:08.185Z,60.91
2023-01-19T03:41:41.512Z,60.80
2023-01-19T03:44:10.348Z,61.23
2023-01-19T03:46:38.595Z,60.29
2023-01-19T03:49:07.758Z,59.35
2023-01-19T03:51:39.034Z,58.70
2023-01-19T03:54:07.524Z,59.13
2023-01-19T03:56:37.965Z,58.61
2023-01-19T03:59:07.493Z,58.44
2023-01-19T04:01:35.683Z,58.88
2023-01-19T04:04:04.010Z,59.33
2023-01-19T04:06:32.173Z,59.82
2023-01-19T04:09:00.310Z,59.46
2023-01-19T04:11:28.500Z,59.74
2023-01-19T04:13:57.962Z,58.91
2023-01-19T04:16:25.962Z,59.01
2023-01-19T04:18:54.584Z,59.07
2023-01-19T04:21:22.609Z,59.36
2023-01-19T04:23:51.235Z,59.03
2023-01-19T04:26:26.815Z,58.62
2023-01-19T04:28:56.924Z,58.42
2023-01-19T04:31:24.907Z,58.26
2023-01-19T04:33:53.033Z,57.86
2023-01-19T04:36:21.381Z,57.51
2023-01-19T04:38:49.694Z,57.78
2023-01-19T04:41:18.431Z,57.77
2023-01-19T04:43:47.710Z,58.93
2023-01-19T04:46:17.320Z,59.24
2023-01-19T04:48:45.418Z,60.79
2023-01-19T04:51:13.500Z,60.15
2023-01-19T04:53:41.989Z,60.58
2023-01-19T04:56:10.067Z,60.53
2023-01-19T04:58:38.295Z,59.93
2023-01-19T05:01:09.147Z,59.41
2023-01-19T05:03:38.619Z,59.10
2023-01-19T05:06:07.810Z,59.42
2023-01-19T05:08:35.924Z,59.86
2023-01-19T05:11:04.283Z,59.55
2023-01-19T05:13:33.527Z,59.21
2023-01-19T05:16:02.011Z,59.06
2023-01-19T05:18:35.995Z,59.50
2023-01-19T05:21:06.820Z,59.37
2023-01-19T05:23:35.124Z,59.24
2023-01-19T05:26:04.036Z,58.96
2023-01-19T05:28:33.457Z,58.60
2023-01-19T05:31:01.623Z,58.53
2023-01-19T05:33:29.888Z,58.83
2023-01-19T05:35:58.304Z,58.89
2023-01-19T05:38:35.375Z,58.66
2023-01-19T05:41:03.926Z,58.63
2023-01-19T05:43:32.204Z,58.14
2023-01-19T05:46:00.421Z,58.80
2023-01-19T05:48:28.444Z,58.30
2023-01-19T05:50:59.330Z,58.78
2023-01-19T05:53:29.287Z,59.19
2023-01-19T05:56:01.365Z,58.97
2023-01-19T05:58:29.823Z,59.71
2023-01-19T06:00:58.423Z,59.98
2023-01-19T06:03:26.821Z,59.55
2023-01-19T06:05:54.866Z,59.95
2023-01-19T06:08:23.001Z,59.95
2023-01-19T06:10:52.538Z,59.98
2023-01-19T06:13:21.371Z,59.94
2023-01-19T06:15:49.601Z,57.28
2023-01-19T06:18:17.860Z,56.34
2023-01-19T06:20:46.699Z,56.13
2023-01-19T06:23:14.944Z,57.23
2023-01-19T06:25:42.938Z,57.94
2023-01-19T06:28:12.421Z,58.75
2023-01-19T06:30:40.592Z,59.65
2023-01-19T06:33:09.254Z,58.56
2023-01-19T06:35:37.277Z,57.96
2023-01-19T06:38:05.668Z,60.04
2023-01-19T06:40:33.744Z,61.95
2023-01-19T06:43:02.278Z,60.70
2023-01-19T06:45:31.976Z,58.75
2023-01-19T06:48:00.800Z,58.39
2023-01-19T06:50:29.093Z,60.44
2023-01-19T06:52:57.316Z,60.27
2023-01-19T06:55:28.030Z,61.66
2023-01-19T06:57:58.924Z,60.48
2023-01-19T07:00:27.553Z,57.79
2023-01-19T07:02:57.452Z,57.83
2023-01-19T07:05:25.853Z,57.45
2023-01-19T07:07:54.365Z,57.51
2023-01-19T07:10:23.307Z,57.35
2023-01-19T07:12:52.208Z,57.11
2023-01-19T07:15:23.011Z,56.40
2023-01-19T07:17:51.240Z,56.27
2023-01-19T07:20:21.099Z,57.29
2023-01-19T07:22:56.243Z,58.05
2023-01-19T07:25:24.706Z,58.72
2023-01-19T07:27:53.235Z,58.81
2023-01-19T07:30:21.300Z,57.82
2023-01-19T07:32:49.353Z,56.06
2023-01-19T07:35:18.259Z,56.09
2023-01-19T07:37:47.985Z,56.01
2023-01-19T07:40:16.553Z,56.11
2023-01-19T07:42:48.729Z,55.90
2023-01-19T07:45:17.566Z,54.52
2023-01-19T07:47:46.499Z,46.03
2023-01-19T07:50:14.759Z,38.23
2023-01-19T07:52:43.732Z,32.96
2023-01-19T07:55:13.283Z,29.18
2023-01-19T07:57:41.481Z,29.07
2023-01-19T08:00:10.946Z,26.10
2023-01-19T08:03:38.670Z,24.06
2023-01-19T08:06:08.732Z,23.50
2023-01-19T08:08:37.271Z,23.16
2023-01-19T08:11:06.955Z,21.84
2023-01-19T08:13:34.910Z,22.18
2023-01-19T08:16:03.261Z,20.21
2023-01-19T08:18:31.371Z,19.40
2023-01-19T08:20:59.915Z,19.58
2023-01-19T08:23:28.941Z,19.42
2023-01-19T08:25:57.276Z,19.15
2023-01-19T08:28:26.992Z,18.50
2023-01-19T08:30:55.518Z,18.59
2023-01-19T08:33:25.466Z,17.77
2023-01-19T08:35:55.134Z,18.64
2023-01-19T08:38:23.447Z,18.13
2023-01-19T08:40:51.746Z,17.27
2023-01-19T08:43:19.865Z,18.35
2023-01-19T08:45:52.883Z,17.47
2023-01-19T08:48:24.460Z,15.92
2023-01-19T08:50:54.219Z,15.95
2023-01-19T08:53:23.790Z,16.01
2023-01-19T08:55:57.578Z,16.16
2023-01-19T08:58:25.939Z,14.99
2023-01-19T09:00:55.975Z,14.56
2023-01-19T09:03:24.335Z,16.37
2023-01-19T09:05:52.372Z,19.59
2023-01-19T09:08:20.811Z,23.50
2023-01-19T09:10:51.687Z,24.45
2023-01-19T09:13:21.532Z,22.43
2023-01-19T09:15:50.146Z,20.65
2023-01-19T09:18:22.621Z,21.73
2023-01-19T09:20:51.931Z,22.66
2023-01-19T09:23:22.739Z,25.22
2023-01-19T09:25:58.106Z,30.41
2023-01-19T09:28:26.762Z,32.31
2023-01-19T09:30:55.372Z,34.31
2023-01-19T09:33:25.800Z,37.35
2023-01-19T09:35:53.803Z,37.18
2023-01-19T09:38:22.516Z,37.07
2023-01-19T09:40:53.664Z,39.10
2023-01-19T09:43:33.043Z,38.74
2023-01-19T09:46:03.791Z,39.87
2023-01-19T09:48:45.869Z,38.69
2023-01-19T09:51:18.012Z,38.82
2023-01-19T09:54:06.522Z,38.98
2023-01-19T09:56:34.989Z,36.94
2023-01-19T09:59:16.217Z,34.85
2023-01-19T10:01:56.086Z,35.21
2023-01-19T10:04:32.276Z,36.09
2023-01-19T10:07:11.707Z,35.49
2023-01-19T10:09:50.107Z,35.08
2023-01-19T10:12:28.463Z,36.41
2023-01-19T10:15:05.085Z,34.61
2023-01-19T10:17:44.770Z,32.77
2023-01-19T10:20:19.420Z,29.25
2023-01-19T10:22:49.945Z,26.55
2023-01-19T10:25:21.218Z,24.54
2023-01-19T10:27:49.751Z,23.77
2023-01-19T10:30:23.459Z,22.26
2023-01-19T10:32:52.838Z,21.98
2023-01-19T10:35:25.978Z,22.56
2023-01-19T10:37:59.663Z,22.51
2023-01-19T10:40:34.505Z,24.55
2023-01-19T10:43:03.624Z,25.57
2023-01-19T10:45:33.646Z,25.27
2023-01-19T10:48:08.720Z,25.64
2023-01-19T10:50:40.727Z,29.16
2023-01-19T10:53:22.080Z,31.01
2023-01-19T10:56:12.280Z,31.25
2023-01-19T10:58:41.612Z,32.80
2023-01-19T11:01:28.595Z,34.61
2023-01-19T11:04:05.602Z,34.61
2023-01-19T11:06:35.878Z,36.34
2023-01-19T11:09:17.898Z,38.33
2023-01-19T11:11:49.441Z,40.62
2023-01-19T11:14:21.989Z,39.55
2023-01-19T11:16:54.073Z,38.95
2023-01-19T11:19:27.686Z,37.70
2023-01-19T11:22:12.538Z,38.25
2023-01-19T11:24:40.810Z,37.85
2023-01-19T11:27:09.362Z,36.73
2023-01-19T11:29:39.090Z,34.79
2023-01-19T11:32:20.606Z,32.57
2023-01-19T11:34:49.905Z,30.66
2023-01-19T11:37:31.581Z,28.42
2023-01-19T11:40:02.633Z,29.14
2023-01-19T11:42:34.553Z,28.95
2023-01-19T11:45:07.601Z,28.77
2023-01-19T11:47:42.911Z,29.32
2023-01-19T11:50:22.697Z,28.98
2023-01-19T11:52:58.222Z,29.76
2023-01-19T11:55:34.063Z,30.13
2023-01-19T11:58:05.447Z,30.02
2023-01-19T12:00:38.292Z,29.74
2023-01-19T12:03:14.374Z,28.42
2023-01-19T12:05:48.389Z,27.96
2023-01-19T12:08:23.008Z,28.66
2023-01-19T12:10:54.305Z,29.40
2023-01-19T12:13:25.204Z,30.27
2023-01-19T12:15:59.267Z,30.99
2023-01-19T12:18:31.524Z,30.87
2023-01-19T12:21:01.817Z,33.40
2023-01-19T12:23:41.591Z,32.99
2023-01-19T12:26:30.085Z,32.90
2023-01-19T12:29:05.017Z,34.51
2023-01-19T12:31:33.783Z,34.44
2023-01-19T12:34:40.024Z,36.91
2023-01-19T12:37:37.941Z,38.16
2023-01-19T12:40:22.943Z,37.71
2023-01-19T12:43:01.439Z,37.72
2023-01-19T12:45:33.340Z,38.06
2023-01-19T12:48:03.072Z,38.08
2023-01-19T12:50:36.238Z,40.35
2023-01-19T12:53:08.409Z,38.85
2023-01-19T12:55:46.651Z,38.33
2023-01-19T12:58:18.885Z,39.95
2023-01-19T13:00:49.384Z,40.51
2023-01-19T13:03:46.102Z,40.24
2023-01-19T13:06:14.363Z,40.79
2023-01-19T13:08:58.513Z,41.59
2023-01-19T13:11:33.269Z,43.89
2023-01-19T13:14:35.212Z,44.79
2023-01-19T13:17:06.642Z,44.69
2023-01-19T13:19:45.801Z,45.53
2023-01-19T13:23:04.900Z,45.11
2023-01-19T13:25:36.533Z,46.28
2023-01-19T13:28:12.117Z,46.66
2023-01-19T13:30:54.425Z,47.44
2023-01-19T13:33:25.756Z,47.11
2023-01-19T13:35:58.801Z,47.27
2023-01-19T13:38:29.133Z,47.31
2023-01-19T13:41:01.391Z,47.09
2023-01-19T13:43:37.714Z,47.12
2023-01-19T13:46:07.146Z,45.33
2023-01-19T13:48:35.626Z,44.25
2023-01-19T13:51:06.279Z,44.69
2023-01-19T13:53:35.545Z,43.92
2023-01-19T13:56:09.728Z,45.25
2023-01-19T13:58:39.281Z,44.85
2023-01-19T14:01:08.679Z,45.88
2023-01-19T14:03:37.110Z,45.91
2023-01-19T14:06:05.607Z,46.94
2023-01-19T14:08:33.875Z,46.56
2023-01-19T14:11:03.701Z,49.73
2023-01-19T14:13:33.757Z,50.69
2023-01-19T14:16:09.234Z,51.59
2023-01-19T14:18:38.325Z,49.85
2023-01-19T14:21:08.546Z,51.13
2023-01-19T14:23:43.423Z,50.72
2023-01-19T14:26:57.278Z,48.75
2023-01-19T14:29:27.734Z,48.78
2023-01-19T14:32:12.503Z,48.16
2023-01-19T14:34:43.237Z,47.52
2023-01-19T14:37:24.299Z,49.07
2023-01-19T14:39:54.883Z,48.38
2023-01-19T14:42:29.686Z,47.18
2023-01-19T14:45:01.178Z,47.80
2023-01-19T14:47:39.590Z,47.24
2023-01-19T14:50:18.979Z,50.99
2023-01-19T14:52:53.804Z,50.79
2023-01-19T14:55:25.151Z,51.77
2023-01-19T14:57:55.298Z,53.85
2023-01-19T15:00:24.260Z,54.70
2023-01-19T15:02:54.392Z,55.05
2023-01-19T15:05:22.825Z,55.89
2023-01-19T15:07:52.134Z,56.15
2023-01-19T15:10:23.967Z,56.78
2023-01-19T15:12:54.269Z,57.17
2023-01-19T15:15:26.275Z,56.21
2023-01-19T15:17:56.667Z,56.87
2023-01-19T15:20:25.278Z,56.43
2023-01-19T15:22:53.372Z,55.26
2023-01-19T15:25:23.104Z,54.80
2023-01-19T15:27:51.475Z,54.38
2023-01-19T15:30:22.091Z,54.22
2023-01-19T15:32:50.634Z,53.34
2023-01-19T15:35:22.035Z,54.06
2023-01-19T15:37:51.557Z,54.62
2023-01-19T15:40:23.355Z,55.22
2023-01-19T15:42:52.048Z,54.76
2023-01-19T15:45:35.479Z,55.44
2023-01-19T15:48:06.030Z,56.47
2023-01-19T15:50:37.627Z,55.70
2023-01-19T15:53:06.573Z,56.23
2023-01-19T15:55:35.082Z,56.17
2023-01-19T15:58:03.232Z,56.17
2023-01-19T16:00:32.850Z,55.51
2023-01-19T16:03:02.861Z,57.23
2023-01-19T16:05:42.658Z,55.71
2023-01-19T16:08:13.251Z,55.08
2023-01-19T16:10:42.145Z,55.32
2023-01-19T16:13:11.467Z,55.85
2023-01-19T16:15:42.332Z,54.32
2023-01-19T16:18:10.809Z,54.62
2023-01-19T16:20:39.140Z,54.45
2023-01-19T16:23:15.603Z,54.22
2023-01-19T16:25:46.016Z,55.63
2023-01-19T16:28:14.214Z,55.75
2023-01-19T16:30:42.460Z,55.67
2023-01-19T16:33:11.778Z,55.76
2023-01-19T16:35:40.250Z,55.41
2023-01-19T16:38:09.650Z,55.05
2023-01-19T16:40:38.102Z,56.62
2023-01-19T16:43:08.366Z,56.68
2023-01-19T16:45:39.456Z,55.46
2023-01-19T16:48:07.927Z,55.82
2023-01-19T16:50:36.054Z,56.16
2023-01-19T16:53:04.232Z,57.73
2023-01-19T16:55:33.135Z,58.25
2023-01-19T16:58:01.190Z,58.90
2023-01-19T17:00:31.615Z,58.37
2023-01-19T17:02:59.739Z,57.66
2023-01-19T17:05:27.764Z,56.46
2023-01-19T17:07:56.043Z,56.84
2023-01-19T17:10:24.337Z,57.30
2023-01-19T17:12:52.401Z,57.36
2023-01-19T17:15:20.465Z,58.16
2023-01-19T17:17:50.457Z,58.44
2023-01-19T17:20:18.932Z,58.32
2023-01-19T17:22:47.318Z,58.51
2023-01-19T17:25:15.860Z,58.42
2023-01-19T17:27:44.665Z,58.43
2023-01-19T17:30:13.522Z,58.02
2023-01-19T17:32:42.660Z,58.56
2023-01-19T17:35:12.553Z,58.17
2023-01-19T17:37:41.187Z,58.77
2023-01-19T17:40:11.025Z,61.98
2023-01-19T17:42:40.925Z,60.16
2023-01-19T17:45:10.941Z,59.74
2023-01-19T17:47:39.429Z,60.43
2023-01-19T17:50:07.799Z,60.31
2023-01-19T17:52:38.176Z,59.88
2023-01-19T17:55:07.449Z,60.09
2023-01-19T17:57:36.167Z,58.69
2023-01-19T18:00:06.376Z,61.56
2023-01-19T18:02:40.746Z,60.35
2023-01-19T18:05:12.734Z,60.95
2023-01-19T18:07:42.505Z,62.20
2023-01-19T18:10:12.300Z,62.25
2023-01-19T18:12:40.548Z,62.21
2023-01-19T18:15:10.367Z,62.46
2023-01-19T18:17:38.548Z,62.27
2023-01-19T18:20:07.980Z,61.07
2023-01-19T18:22:36.302Z,60.23
2023-01-19T18:25:06.658Z,60.71
2023-01-19T18:27:34.850Z,60.34
2023-01-19T18:30:03.047Z,60.47
2023-01-19T18:32:31.407Z,60.09
2023-01-19T18:34:59.607Z,59.64
2023-01-19T18:37:27.721Z,59.33
2023-01-19T18:39:59.734Z,59.09
2023-01-19T18:42:30.204Z,57.78
2023-01-19T18:44:58.552Z,57.61
2023-01-19T18:47:27.528Z,57.50
2023-01-19T18:49:55.529Z,56.93
2023-01-19T18:52:24.142Z,56.88
2023-01-19T18:54:52.655Z,56.08
2023-01-19T18:57:20.748Z,56.18
2023-01-19T18:59:50.823Z,57.10
2023-01-19T19:02:19.024Z,58.18
2023-01-19T19:05:02.993Z,59.16
2023-01-19T19:07:31.239Z,59.14
2023-01-19T19:09:59.562Z,58.17
2023-01-19T19:12:27.606Z,58.06
2023-01-19T19:14:57.607Z,58.09
2023-01-19T19:17:25.848Z,59.63
2023-01-19T19:19:54.413Z,62.98
2023-01-19T19:22:25.388Z,58.69
2023-01-19T19:24:53.846Z,58.06
2023-01-19T19:27:22.012Z,59.17
2023-01-19T19:29:50.279Z,58.02
2023-01-19T19:32:20.627Z,58.11
2023-01-19T19:34:50.537Z,58.78
2023-01-19T19:37:18.817Z,59.69
2023-01-19T19:39:46.940Z,59.90
2023-01-19T19:42:15.564Z,58.89
2023-01-19T19:44:43.974Z,58.63
2023-01-19T19:47:12.035Z,56.32
2023-01-19T19:49:41.722Z,58.85
2023-01-19T19:52:09.691Z,59.45
2023-01-19T19:54:38.135Z,60.23
2023-01-19T19:57:06.488Z,59.40
2023-01-19T19:59:34.805Z,57.22
2023-01-19T20:02:03.051Z,57.05
2023-01-19T20:04:31.276Z,56.67
2023-01-19T20:07:00.915Z,56.29
2023-01-19T20:09:29.106Z,57.00
2023-01-19T20:11:57.569Z,57.23
2023-01-19T20:14:25.720Z,57.84
2023-01-19T20:16:54.410Z,57.76
2023-01-19T20:19:22.877Z,58.11
2023-01-19T20:21:50.851Z,58.27
2023-01-19T20:24:21.598Z,57.91
2023-01-19T20:26:51.874Z,56.98
2023-01-19T20:29:20.577Z,57.76
2023-01-19T20:31:51.184Z,57.33
2023-01-19T20:34:22.121Z,57.59
2023-01-19T20:36:53.276Z,57.91
2023-01-19T20:39:25.051Z,57.83
2023-01-19T20:41:53.659Z,58.18
2023-01-19T20:44:24.415Z,58.71
2023-01-19T20:46:53.969Z,59.45
2023-01-19T20:49:22.528Z,59.42
2023-01-19T20:51:52.136Z,57.94
2023-01-19T20:54:26.361Z,58.05
2023-01-19T20:56:55.834Z,58.12
2023-01-19T20:59:25.604Z,57.55
2023-01-19T21:01:54.327Z,56.86
2023-01-19T21:04:22.608Z,58.66
2023-01-19T21:06:50.954Z,60.55
2023-01-19T21:09:19.265Z,60.34
2023-01-19T21:11:48.616Z,59.57
2023-01-19T21:14:16.994Z,58.60
2023-01-19T21:16:45.197Z,57.85
2023-01-19T21:19:13.877Z,56.78
2023-01-19T21:21:42.647Z,56.50
2023-01-19T21:24:11.984Z,56.64
2023-01-19T21:26:41.784Z,57.08
2023-01-19T21:29:14.137Z,56.44
2023-01-19T21:31:43.137Z,56.64
2023-01-19T21:34:11.940Z,56.80
2023-01-19T21:36:40.311Z,56.92
2023-01-19T21:39:09.091Z,57.07
2023-01-19T21:41:39.829Z,57.06
2023-01-19T21:44:07.950Z,57.26
2023-01-19T21:46:37.938Z,57.46
2023-01-19T21:49:08.276Z,56.83
2023-01-19T21:51:37.840Z,56.44
2023-01-19T21:54:07.700Z,57.34
2023-01-19T21:56:38.017Z,58.82
2023-01-19T21:59:06.777Z,58.96
2023-01-19T22:01:37.111Z,58.17
2023-01-19T22:04:05.451Z,58.61
2023-01-19T22:06:34.114Z,58.75
2023-01-19T22:09:02.673Z,58.83
2023-01-19T22:11:31.324Z,57.85
2023-01-19T22:14:00.537Z,57.09
2023-01-19T22:16:29.557Z,57.10
2023-01-19T22:19:03.126Z,56.86
2023-01-19T22:21:33.034Z,56.85
2023-01-19T22:24:02.980Z,56.39
2023-01-19T22:26:34.236Z,57.67
2023-01-19T22:29:03.279Z,57.19
2023-01-19T22:31:32.018Z,56.91
2023-01-19T22:34:02.123Z,57.35
2023-01-19T22:36:31.919Z,57.41
2023-01-19T22:39:01.620Z,56.61
2023-01-19T22:41:32.083Z,56.49
2023-01-19T22:44:02.086Z,56.03
2023-01-19T22:46:32.828Z,56.32
2023-01-19T22:49:03.030Z,56.46
2023-01-19T22:51:32.892Z,56.61
2023-01-19T22:54:01.481Z,57.11
2023-01-19T22:56:31.863Z,56.41
2023-01-19T22:59:00.474Z,56.57
2023-01-19T23:01:30.696Z,56.79
2023-01-19T23:03:58.796Z,57.10
2023-01-19T23:06:30.063Z,57.30
2023-01-19T23:09:00.425Z,57.05
2023-01-19T23:11:35.724Z,56.91
2023-01-19T23:14:05.111Z,57.18
2023-01-19T23:16:33.121Z,57.79
2023-01-19T23:19:01.421Z,57.90
2023-01-19T23:21:33.061Z,58.11
2023-01-19T23:24:03.530Z,57.11
2023-01-19T23:26:38.155Z,56.54
2023-01-19T23:29:08.743Z,56.54
2023-01-19T23:31:39.783Z,57.08
2023-01-19T23:34:10.064Z,57.12
2023-01-19T23:36:41.165Z,57.12
2023-01-19T23:39:14.161Z,56.67
2023-01-19T23:41:42.419Z,56.46
2023-01-19T23:44:10.827Z,56.00
2023-01-19T23:46:39.664Z,56.55
2023-01-19T23:49:07.799Z,56.90
2023-01-19T23:51:36.092Z,56.60
2023-01-19T23:54:05.767Z,56.59
2023-01-19T23:56:36.408Z,57.39
2023-01-19T23:59:07.268Z,57.60
